This is the latest recevied weather packets stored in our database for station/object kc7mrq. If no packets are shown the sender has not sent any weather packets the latest 10 day(s).
| Time | Temp. | Humidity | Pressure | Rain* | Wind** | Luminosity | Snow |
|---|---|---|---|---|---|---|---|
| 1778103924 | 17.22° C | 31% | 1014.2 hPa | 0 mm | - | - | - |
| 1778103020 | 16.67° C | 34% | 1014.5 hPa | 0 mm | - | - | - |
| 1778100314 | 16.11° C | 35% | 1015 hPa | 0 mm | - | - | - |
| 1778097604 | 15.56° C | 36% | 1015.7 hPa | 0 mm | - | - | - |
| 1778083213 | 5° C | 49% | 1019.7 hPa | 0 mm | - | - | - |
| 1778077857 | 2.78° C | 57% | 1020.6 hPa | 0 mm | - | - | - |
| 1778075144 | -0.56° C | 65% | 1020.8 hPa | 0 mm | - | - | - |
| 1778070633 | -2.78° C | 75% | 1020.5 hPa | 0 mm | - | - | - |
| 1778069732 | -2.78° C | 75% | 1020.6 hPa | 0 mm | - | - | - |
| 1778066129 | -2.78° C | 74% | 1020.6 hPa | 0 mm | - | - | - |
| 1778065231 | -2.78° C | 75% | 1020.7 hPa | 0 mm | - | - | - |
| 1778064325 | -2.78° C | 74% | 1020.8 hPa | 0 mm | - | - | - |
| 1778061630 | -2.78° C | 73% | 1020.9 hPa | 0 mm | - | - | - |
| 1778057120 | -2.22° C | 73% | 1021.2 hPa | 0 mm | - | - | - |
| 1778054415 | -3.33° C | 77% | 1021.2 hPa | 0 mm | - | - | - |
| 1778053514 | -3.33° C | 76% | 1021.3 hPa | 0 mm | - | - | - |
| 1778052609 | -2.78° C | 75% | 1021.5 hPa | 0 mm | - | - | - |
| 1778044551 | -1.11° C | 70% | 1021.5 hPa | 0 mm | - | - | - |
| 1778040047 | -1.11° C | 65% | 1021.1 hPa | 0 mm | - | - | - |
| 1778039145 | 0.56° C | 62% | 1021.1 hPa | 0 mm | - | - | - |
| 1778032892 | 2.78° C | 53% | 1019.5 hPa | 0 mm | - | - | - |
| 1778028327 | 3.33° C | 55% | 1018.8 hPa | 0 mm | - | - | - |
| 1778027424 | 3.33° C | 56% | 1018.7 hPa | 0 mm | - | - | - |
| 1778026522 | 3.33° C | 56% | 1018.5 hPa | 0 mm | - | - | - |
| 1778018409 | 5.56° C | 47% | 1017.1 hPa | 0 mm | - | - | - |
* Rain latest hour (hover to see other rain measurements)
** Current wind speed in m/s (hover to see current wind gust speed)